Terminal Aerodrome Forecast
Issued by NWS Twin Cities, MN

Home | Current Version | Previous Version | Text Only | Print | Product List | Glossary On
Versions: 1 2 3 4 5 6 7 8 9 10 11 12 13 14 15 16
660
FTUS43 KMPX 262335
TAFEAU
TAF
KEAU 262335Z 2700/2724 25006KT P6SM SCT050
     FM270500 13003KT P6SM BKN050
     FM271200 15006KT P6SM BKN070
     FM271700 18009KT P6SM BKN090=

USA.gov is the U.S. government's official web portal to all federal, state and local government web resources and services.